Time;durP1;ratioP1;P1;durP2;ratioP2;P2;SDS_P1;SDS_P2;PMS_P1;PMS_P2;Temp;Humidity;BMP_temperature;BMP_pressure;BME280_temperature;BME280_humidity;BME280_pressure;Samples;Min_cycle;Max_cycle;Signal;HPM_P1;HPM_P2
2021/09/28 00:00:19;;;;;;;19.85;16.77;;;;;;;14.69;100.00;96306.47;1033602;28;20032;-65
2021/09/28 00:00:49;;;;;;;21.17;16.92;;;;;;;14.67;100.00;96313.09;1035824;28;20041;-66
2021/09/28 00:01:23;;;;;;;24.20;17.35;;;;;;;14.65;100.00;96300.13;1032079;28;20038;-66
2021/09/28 00:01:53;;;;;;;23.20;17.35;;;;;;;14.67;100.00;96308.59;1037616;28;20037;-62
2021/09/28 00:02:24;;;;;;;20.40;15.57;;;;;;;14.68;100.00;96312.00;1035864;28;20033;-65
2021/09/28 00:02:54;;;;;;;21.10;16.55;;;;;;;14.60;100.00;96305.47;1028047;28;20031;-63
2021/09/28 00:03:25;;;;;;;20.20;16.58;;;;;;;14.67;100.00;96313.88;1027820;28;20066;-65
2021/09/28 00:03:55;;;;;;;20.52;16.60;;;;;;;14.67;100.00;96313.88;1030501;28;20199;-64
2021/09/28 00:04:26;;;;;;;20.88;15.85;;;;;;;14.69;100.00;96311.75;1031752;28;20081;-65
2021/09/28 00:04:56;;;;;;;20.33;15.43;;;;;;;14.69;100.00;96311.75;1031738;28;20022;-66
2021/09/28 00:05:27;;;;;;;18.90;15.52;;;;;;;14.70;100.00;96313.31;1029831;28;20030;-66
2021/09/28 00:05:57;;;;;;;21.33;16.23;;;;;;;14.67;100.00;96311.22;1035773;28;20076;-65
2021/09/28 00:06:28;;;;;;;19.02;16.05;;;;;;;14.69;100.00;96316.22;1031790;28;20081;-64
2021/09/28 00:06:59;;;;;;;20.88;15.60;;;;;;;14.70;100.00;96317.81;1031485;28;20125;-65
2021/09/28 00:07:29;;;;;;;21.60;16.75;;;;;;;14.68;100.00;96312.78;1035889;28;20018;-65
2021/09/28 00:07:59;;;;;;;24.33;16.58;;;;;;;14.68;100.00;96320.72;1031632;28;20544;-65
2021/09/28 00:08:30;;;;;;;21.98;16.42;;;;;;;14.68;100.00;96315.44;1035034;28;20030;-65
2021/09/28 00:09:03;;;;;;;22.17;17.13;;;;;;;14.67;100.00;96316.50;1038276;28;20036;-66
2021/09/28 00:09:33;;;;;;;22.90;17.10;;;;;;;14.67;100.00;96319.16;1035508;28;20033;-65
2021/09/28 00:10:04;;;;;;;20.73;15.90;;;;;;;14.66;100.00;96319.44;1033842;28;20117;-64
2021/09/28 00:10:35;;;;;;;23.38;16.70;;;;;;;14.65;100.00;96318.63;1027442;28;20110;-65
2021/09/28 00:11:07;;;;;;;21.08;16.75;;;;;;;14.63;100.00;96323.41;1023860;29;20061;-65
2021/09/28 00:11:40;;;;;;;21.95;16.70;;;;;;;14.65;100.00;96315.19;1023128;29;20558;-65
2021/09/28 00:12:10;;;;;;;21.45;16.80;;;;;;;14.59;100.00;96309.19;1021354;28;20060;-66
2021/09/28 00:12:41;;;;;;;19.00;14.75;;;;;;;14.60;100.00;96314.16;1027824;28;20031;-66
2021/09/28 00:13:16;;;;;;;21.75;16.73;;;;;;;14.64;100.00;96314.41;1023485;29;20015;-64
2021/09/28 00:13:46;;;;;;;22.70;16.08;;;;;;;14.65;100.00;96318.63;1021390;28;20103;-66
2021/09/28 00:14:19;;;;;;;23.65;16.92;;;;;;;14.63;100.00;96318.13;1023980;28;20094;-66
2021/09/28 00:14:50;;;;;;;21.23;15.82;;;;;;;14.63;100.00;96320.75;1025657;28;20032;-65
2021/09/28 00:15:20;;;;;;;21.52;16.27;;;;;;;14.64;100.00;96316.28;1028743;28;20022;-66
2021/09/28 00:15:50;;;;;;;20.02;15.95;;;;;;;14.65;100.00;96320.47;1031568;28;20034;-63
2021/09/28 00:16:21;;;;;;;20.40;15.50;;;;;;;14.65;100.00;96321.25;1027720;28;20029;-65
2021/09/28 00:16:51;;;;;;;21.38;16.05;;;;;;;14.65;100.00;96321.25;1031740;28;20077;-62
2021/09/28 00:17:22;;;;;;;20.95;16.67;;;;;;;14.66;100.00;96322.88;1031853;28;20048;-66
2021/09/28 00:17:52;;;;;;;21.25;16.48;;;;;;;14.64;100.00;96316.28;1031760;28;20026;-66
2021/09/28 00:18:24;;;;;;;19.08;15.23;;;;;;;14.65;100.00;96315.97;1035791;28;20041;-65
2021/09/28 00:18:54;;;;;;;21.23;16.00;;;;;;;14.65;100.00;96315.19;1039689;28;20183;-65
2021/09/28 00:19:25;;;;;;;18.15;15.55;;;;;;;14.66;100.00;96314.94;1039675;28;20018;-66
2021/09/28 00:19:58;;;;;;;19.83;16.48;;;;;;;14.65;100.00;96318.63;1039820;28;20104;-66
2021/09/28 00:20:30;;;;;;;20.98;15.52;;;;;;;14.63;100.00;96318.13;1032673;28;20022;-66
2021/09/28 00:21:00;;;;;;;21.45;15.82;;;;;;;14.65;100.00;96315.97;1028424;28;20101;-65
2021/09/28 00:21:31;;;;;;;22.33;16.25;;;;;;;14.67;100.00;96313.09;1032501;28;20057;-65
2021/09/28 00:22:01;;;;;;;19.27;15.43;;;;;;;14.67;100.00;96313.09;1031620;28;20505;-66
2021/09/28 00:22:31;;;;;;;20.75;15.73;;;;;;;14.61;100.00;96304.38;1023974;28;20340;-66
2021/09/28 00:23:04;;;;;;;21.33;15.98;;;;;;;14.67;100.00;96321.00;1023635;28;20094;-65
2021/09/28 00:23:34;;;;;;;19.48;15.32;;;;;;;14.69;100.00;96318.88;1023768;29;20111;-64
2021/09/28 00:24:05;;;;;;;19.92;15.70;;;;;;;14.60;100.00;96298.31;1023555;29;20030;-65
2021/09/28 00:24:36;;;;;;;20.27;16.00;;;;;;;14.67;100.00;96313.88;1023276;29;20456;-66
2021/09/28 00:25:08;;;;;;;17.60;14.63;;;;;;;14.63;100.00;96307.56;1023749;28;20106;-65
2021/09/28 00:25:38;;;;;;;19.58;15.15;;;;;;;14.70;100.00;96312.53;1027711;28;20057;-65
2021/09/28 00:26:08;;;;;;;18.83;14.75;;;;;;;14.70;100.00;96308.03;1027559;28;20038;-65
2021/09/28 00:26:39;;;;;;;20.55;15.07;;;;;;;14.70;100.00;96310.69;1027751;28;20035;-66
2021/09/28 00:27:09;;;;;;;22.77;15.63;;;;;;;14.70;100.00;96318.59;1027970;28;20373;-65
2021/09/28 00:27:40;;;;;;;20.35;15.07;;;;;;;14.70;100.00;96313.31;1034709;28;20025;-66
2021/09/28 00:28:11;;;;;;;17.80;14.95;;;;;;;14.71;100.00;96320.19;1031803;28;20027;-65
2021/09/28 00:28:42;;;;;;;18.17;15.15;;;;;;;14.69;100.00;96305.66;1031829;28;20030;-63
2021/09/28 00:29:15;;;;;;;18.80;14.85;;;;;;;14.71;100.00;96317.53;1027717;28;20034;-64
2021/09/28 00:29:45;;;;;;;17.63;14.70;;;;;;;14.73;100.00;96309.34;1032369;28;20097;-62
2021/09/28 00:30:16;;;;;;;19.40;14.95;;;;;;;14.74;100.00;96313.56;1040047;28;20037;-66
2021/09/28 00:30:46;;;;;;;19.98;15.10;;;;;;;14.73;100.00;96318.06;1036332;28;20459;-66
2021/09/28 00:31:17;;;;;;;20.27;16.30;;;;;;;14.69;100.00;96311.75;1034921;28;20034;-66
2021/09/28 00:31:47;;;;;;;21.23;16.00;;;;;;;14.72;100.00;96318.31;1031652;28;20038;-65
2021/09/28 00:32:18;;;;;;;20.08;15.60;;;;;;;14.69;100.00;96314.41;1031944;28;20467;-65
2021/09/28 00:32:48;;;;;;;18.40;15.57;;;;;;;14.72;100.00;96310.41;1023315;28;20031;-63
2021/09/28 00:33:18;;;;;;;19.92;16.65;;;;;;;14.72;100.00;96311.22;1023553;29;20030;-65
2021/09/28 00:33:49;;;;;;;19.10;15.00;;;;;;;14.73;100.00;96318.06;1019769;29;20029;-66
2021/09/28 00:34:19;;;;;;;20.92;16.08;;;;;;;14.73;100.00;96310.13;1019871;28;20031;-65
2021/09/28 00:34:50;;;;;;;19.23;15.38;;;;;;;14.70;100.00;96305.41;1027539;28;20027;-66
2021/09/28 00:35:20;;;;;;;21.80;16.48;;;;;;;14.68;100.00;96307.50;1031713;28;20030;-65
2021/09/28 00:35:54;;;;;;;19.92;15.57;;;;;;;14.72;100.00;96320.97;1031691;28;20046;-66
2021/09/28 00:36:24;;;;;;;19.13;15.18;;;;;;;14.68;100.00;96304.88;1027388;28;21320;-65
2021/09/28 00:36:54;;;;;;;19.45;15.45;;;;;;;14.71;100.00;96319.38;1027761;28;20074;-65
2021/09/28 00:37:25;;;;;;;22.73;15.57;;;;;;;14.69;100.00;96314.41;1027206;28;20030;-66
2021/09/28 00:37:55;;;;;;;20.27;15.82;;;;;;;14.68;100.00;96323.38;1023402;28;20024;-65
2021/09/28 00:38:26;;;;;;;21.13;16.13;;;;;;;14.70;100.00;96323.09;1019949;28;20032;-65
2021/09/28 00:38:56;;;;;;;19.48;16.05;;;;;;;14.54;100.00;96294.13;1027870;28;20716;-65
2021/09/28 00:39:27;;;;;;;20.77;16.63;;;;;;;14.69;100.00;96322.31;1019782;29;20030;-64
2021/09/28 00:39:57;;;;;;;20.83;16.52;;;;;;;14.66;100.00;96312.28;1023360;28;20516;-65
2021/09/28 00:40:28;;;;;;;21.40;15.57;;;;;;;14.58;100.00;96310.22;1027875;28;20109;-62
2021/09/28 00:40:58;;;;;;;21.08;15.75;;;;;;;14.63;100.00;96323.41;1027081;28;20027;-65
2021/09/28 00:41:29;;;;;;;20.08;15.98;;;;;;;14.64;100.00;96314.41;1026553;28;20341;-65
2021/09/28 00:42:02;;;;;;;20.63;16.42;;;;;;;14.65;100.00;96320.47;1030866;28;20698;-66
2021/09/28 00:42:36;;;;;;;20.50;15.90;;;;;;;14.65;100.00;96321.25;1028741;28;20023;-65
2021/09/28 00:43:06;;;;;;;23.75;16.65;;;;;;;14.61;100.00;96321.03;1033604;28;20496;-65
2021/09/28 00:43:47;;;;;;;20.80;16.48;;;;;;;14.61;100.00;96320.25;1035828;28;20026;-65
2021/09/28 00:44:38;;;;;;;22.75;16.02;;;;;;;14.60;100.00;96321.31;1033824;28;20022;-64
2021/09/28 00:45:09;;;;;;;20.90;16.08;;;;;;;14.60;100.00;96316.81;1032007;28;20022;-64
2021/09/28 00:45:39;;;;;;;26.42;16.25;;;;;;;14.56;100.00;96310.50;1031890;28;20034;-65
2021/09/28 00:46:10;;;;;;;18.55;15.95;;;;;;;14.59;100.00;96317.09;1030779;28;20471;-66
2021/09/28 00:46:40;;;;;;;20.40;16.10;;;;;;;14.59;100.00;96317.88;1022863;28;20065;-66
2021/09/28 00:47:12;;;;;;;21.55;17.65;;;;;;;14.58;100.00;96318.13;1019916;29;20059;-66
2021/09/28 00:47:42;;;;;;;22.58;16.52;;;;;;;14.59;100.00;96322.38;1023822;29;20027;-65
2021/09/28 00:48:13;;;;;;;28.60;17.27;;;;;;;14.57;100.00;96319.22;1023606;28;20038;-65
2021/09/28 00:48:44;;;;;;;21.42;16.50;;;;;;;14.51;100.00;96307.09;1027938;28;20046;-65
2021/09/28 00:49:14;;;;;;;21.88;16.35;;;;;;;14.57;100.00;96316.56;1027316;28;20085;-65
2021/09/28 00:49:46;;;;;;;21.58;16.65;;;;;;;14.48;100.00;96311.03;1029959;28;20112;-66
2021/09/28 00:50:16;;;;;;;22.75;16.85;;;;;;;14.57;100.00;96319.22;1023538;28;20035;-66
2021/09/28 00:50:47;;;;;;;23.33;16.30;;;;;;;14.56;100.00;96322.94;1027459;28;20037;-65
2021/09/28 00:51:17;;;;;;;18.98;15.88;;;;;;;14.50;100.00;96316.88;1026608;28;20023;-63
2021/09/28 00:51:48;;;;;;;21.77;17.83;;;;;;;14.51;100.00;96320.31;1026214;28;20477;-64
2021/09/28 00:52:19;;;;;;;20.58;17.00;;;;;;;14.45;100.00;96316.84;1027384;28;20477;-62
2021/09/28 00:52:49;;;;;;;23.27;16.90;;;;;;;14.49;100.00;96323.19;1027180;28;20113;-67
2021/09/28 00:53:20;;;;;;;20.98;17.10;;;;;;;14.46;100.00;96317.66;1017304;29;20134;-65
2021/09/28 00:53:52;;;;;;;19.85;16.45;;;;;;;14.50;100.00;96319.50;1023122;28;20035;-65
2021/09/28 00:54:22;;;;;;;20.42;15.40;;;;;;;14.50;100.00;96318.69;1023422;29;20027;-66
2021/09/28 00:54:53;;;;;;;21.50;16.50;;;;;;;14.47;100.00;96316.59;1022812;29;20031;-65
2021/09/28 00:55:30;;;;;;;20.63;16.02;;;;;;;14.45;100.00;96313.44;1023877;28;20027;-65
2021/09/28 00:56:00;;;;;;;22.33;17.23;;;;;;;14.48;100.00;96320.81;1027127;28;20580;-65
2021/09/28 00:56:31;;;;;;;22.88;17.45;;;;;;;14.47;100.00;96321.88;1022562;28;20038;-64
2021/09/28 00:57:01;;;;;;;20.88;16.95;;;;;;;14.46;100.00;96322.94;1027308;28;20038;-65
2021/09/28 00:57:32;;;;;;;21.88;16.60;;;;;;;14.45;100.00;96322.13;1028150;28;20105;-66
2021/09/28 00:58:08;;;;;;;21.48;15.88;;;;;;;14.44;100.00;96327.72;1027194;28;20037;-65
2021/09/28 00:58:38;;;;;;;24.52;17.40;;;;;;;14.39;100.00;96318.75;1027553;28;20089;-66
2021/09/28 00:59:12;;;;;;;21.15;16.88;;;;;;;14.42;100.00;96319.25;1023310;29;20092;-64
2021/09/28 00:59:43;;;;;;;20.52;16.15;;;;;;;14.37;100.00;96315.59;1023211;29;20023;-66
2021/09/28 01:00:14;;;;;;;21.10;17.60;;;;;;;14.38;100.00;96327.75;1022468;29;20023;-66
2021/09/28 01:00:44;;;;;;;24.38;17.42;;;;;;;14.38;100.00;96321.66;1027393;28;20126;-65
2021/09/28 01:01:15;;;;;;;21.45;16.77;;;;;;;14.37;100.00;96326.16;1030681;28;20022;-66
2021/09/28 01:01:45;;;;;;;21.75;16.92;;;;;;;14.37;100.00;96320.88;1031158;28;20084;-66
2021/09/28 01:02:16;;;;;;;24.58;17.80;;;;;;;14.30;100.00;96314.31;1022689;28;20039;-66
2021/09/28 01:02:46;;;;;;;21.85;16.88;;;;;;;14.35;100.00;96328.28;1023362;28;20024;-65
2021/09/28 01:03:17;;;;;;;23.80;17.08;;;;;;;14.32;100.00;96318.25;1027218;28;20030;-66
2021/09/28 01:03:47;;;;;;;21.08;16.60;;;;;;;14.34;100.00;96326.69;1030936;28;20030;-65
2021/09/28 01:04:18;;;;;;;21.48;17.83;;;;;;;14.34;100.00;96331.19;1035160;28;20542;-66
2021/09/28 01:04:48;;;;;;;20.67;16.65;;;;;;;14.34;100.00;96326.69;1032094;28;20018;-65
2021/09/28 01:05:19;;;;;;;21.40;16.73;;;;;;;14.31;100.00;96323.81;1034764;28;20038;-65
2021/09/28 01:05:49;;;;;;;23.75;17.42;;;;;;;14.26;100.00;96322.00;1031168;28;20038;-65
2021/09/28 01:06:20;;;;;;;22.13;17.08;;;;;;;14.13;100.00;96309.38;1027269;28;20027;-64
2021/09/28 01:06:50;;;;;;;20.85;16.58;;;;;;;14.27;100.00;96326.19;1023090;29;20042;-65
2021/09/28 01:07:20;;;;;;;23.92;17.08;;;;;;;14.27;100.00;96325.41;1022564;29;20038;-65
2021/09/28 01:07:51;;;;;;;22.55;18.38;;;;;;;14.25;100.00;96323.06;1023067;29;20082;-66
2021/09/28 01:08:21;;;;;;;25.75;18.40;;;;;;;14.24;100.00;96336.50;1027339;28;20030;-65
2021/09/28 01:08:52;;;;;;;24.88;18.20;;;;;;;14.21;100.00;96322.00;1031262;28;20030;-66
2021/09/28 01:09:22;;;;;;;22.98;17.20;;;;;;;14.19;100.00;96324.13;1039283;28;20439;-65
2021/09/28 01:09:53;;;;;;;21.80;17.08;;;;;;;14.21;100.00;96323.84;1031334;28;20128;-65
2021/09/28 01:10:26;;;;;;;27.30;18.33;;;;;;;14.18;100.00;96327.81;1031822;28;20484;-66
2021/09/28 01:10:57;;;;;;;23.75;17.67;;;;;;;14.16;100.00;96327.31;1031173;28;20028;-65
2021/09/28 01:11:28;;;;;;;29.17;18.75;;;;;;;14.14;100.00;96326.78;1026410;28;20022;-65
2021/09/28 01:11:58;;;;;;;24.27;18.52;;;;;;;14.09;100.00;96318.91;1027758;28;20448;-66
2021/09/28 01:12:29;;;;;;;25.30;18.48;;;;;;;14.13;100.00;96327.84;1030852;28;20661;-65
2021/09/28 01:13:02;;;;;;;23.88;18.77;;;;;;;14.08;100.00;96317.31;1031318;28;20069;-65
2021/09/28 01:13:35;;;;;;;25.08;18.17;;;;;;;14.09;100.00;96330.25;1027160;28;20038;-65
2021/09/28 01:14:06;;;;;;;32.58;18.33;;;;;;;14.03;100.00;96317.34;1023334;28;20047;-66
2021/09/28 01:14:37;;;;;;;27.17;19.15;;;;;;;13.99;100.00;96313.66;1026906;28;20446;-66
2021/09/28 01:15:08;;;;;;;24.88;18.00;;;;;;;13.99;100.00;96327.63;1027612;28;20038;-64
2021/09/28 01:15:38;;;;;;;22.25;17.67;;;;;;;14.01;100.00;96322.09;1031756;28;20109;-65
2021/09/28 01:16:10;;;;;;;25.17;18.52;;;;;;;13.98;100.00;96322.63;1031284;28;20030;-64
2021/09/28 01:16:40;;;;;;;26.50;18.75;;;;;;;13.96;100.00;96319.47;1030905;28;20443;-66
2021/09/28 01:17:15;;;;;;;29.15;20.48;;;;;;;13.93;100.00;96320.00;1023085;28;20038;-65
2021/09/28 01:17:45;;;;;;;24.67;18.20;;;;;;;13.90;100.00;96322.13;1023863;28;20065;-66
2021/09/28 01:18:17;;;;;;;26.83;19.55;;;;;;;13.88;100.00;96321.63;1023583;29;20069;-65
2021/09/28 01:18:47;;;;;;;24.52;18.58;;;;;;;13.89;100.00;96325.81;1026923;28;20508;-65
2021/09/28 01:19:18;;;;;;;24.35;18.33;;;;;;;13.88;100.00;96324.25;1035132;28;20260;-66
2021/09/28 01:19:48;;;;;;;22.80;17.80;;;;;;;13.88;100.00;96323.44;1030847;28;20508;-64
2021/09/28 01:20:19;;;;;;;26.85;19.40;;;;;;;13.88;100.00;96320.81;1024021;28;20039;-64
2021/09/28 01:20:49;;;;;;;25.70;18.20;;;;;;;13.79;100.00;96314.53;1025744;28;20118;-65
2021/09/28 01:21:20;;;;;;;26.95;19.70;;;;;;;13.82;100.00;96325.31;1024871;28;20038;-62
2021/09/28 01:21:50;;;;;;;24.10;18.73;;;;;;;13.84;100.00;96323.19;1035145;28;20065;-66
2021/09/28 01:22:21;;;;;;;26.42;18.63;;;;;;;13.86;100.00;96320.28;1031523;28;20057;-66
2021/09/28 01:22:51;;;;;;;25.80;19.40;;;;;;;13.83;100.00;96326.88;1018973;29;20501;-66
2021/09/28 01:23:22;;;;;;;24.13;19.05;;;;;;;13.79;100.00;96328.50;1015259;29;20040;-65
2021/09/28 01:23:52;;;;;;;24.88;18.00;;;;;;;13.73;100.00;96319.00;1019767;29;20034;-66
2021/09/28 01:24:23;;;;;;;24.48;18.35;;;;;;;13.72;100.00;96314.00;1020257;28;20204;-67
2021/09/28 01:24:53;;;;;;;24.33;17.88;;;;;;;13.79;100.00;96325.84;1023115;29;20027;-65
2021/09/28 01:25:24;;;;;;;25.63;18.48;;;;;;;13.78;100.00;96331.38;1015664;29;20028;-65
2021/09/28 01:25:54;;;;;;;22.50;17.52;;;;;;;13.78;100.00;96324.28;1015335;29;20035;-65
2021/09/28 01:26:25;;;;;;;23.98;17.23;;;;;;;13.76;100.00;96325.59;1019693;29;20157;-66
2021/09/28 01:26:55;;;;;;;27.20;19.17;;;;;;;13.74;100.00;96325.84;1019326;28;20520;-66
2021/09/28 01:27:25;;;;;;;23.15;17.52;;;;;;;13.73;100.00;96326.13;1027235;28;20022;-66
2021/09/28 01:27:56;;;;;;;23.42;17.70;;;;;;;13.71;100.00;96329.03;1034112;28;20384;-66
2021/09/28 01:28:26;;;;;;;22.08;16.98;;;;;;;13.68;100.00;96324.28;1039400;28;20029;-66
2021/09/28 01:28:57;;;;;;;25.52;17.52;;;;;;;13.70;100.00;96330.09;1035217;28;20042;-66
2021/09/28 01:29:27;;;;;;;23.05;16.77;;;;;;;13.68;100.00;96330.38;1029642;28;20074;-64
2021/09/28 01:29:58;;;;;;;24.20;18.92;;;;;;;13.66;100.00;96327.19;1027138;28;20460;-64
2021/09/28 01:30:28;;;;;;;24.33;19.15;;;;;;;13.65;100.00;96328.25;1023614;28;20452;-65
2021/09/28 01:30:59;;;;;;;23.52;17.17;;;;;;;13.63;100.00;96332.22;1027320;28;20472;-63
2021/09/28 01:31:29;;;;;;;24.23;17.75;;;;;;;13.60;100.00;96322.97;1034534;28;20838;-66
2021/09/28 01:32:00;;;;;;;22.25;17.17;;;;;;;13.61;100.00;96334.31;1027302;28;20035;-66
2021/09/28 01:32:30;;;;;;;23.67;17.88;;;;;;;13.60;100.00;96327.47;1027041;28;20138;-65
2021/09/28 01:33:01;;;;;;;23.40;18.50;;;;;;;13.59;100.00;96331.19;1023852;28;20046;-66
2021/09/28 01:33:31;;;;;;;25.25;17.90;;;;;;;13.61;100.00;96323.78;1018925;29;20059;-66
2021/09/28 01:34:02;;;;;;;24.67;18.17;;;;;;;13.59;100.00;96325.91;1019262;29;20429;-66
2021/09/28 01:34:32;;;;;;;26.15;18.40;;;;;;;13.58;100.00;96329.56;1015737;29;20043;-65
2021/09/28 01:35:03;;;;;;;23.58;18.40;;;;;;;13.57;100.00;96328.00;1019380;29;20035;-65
2021/09/28 01:35:37;;;;;;;22.45;18.17;;;;;;;13.57;100.00;96328.78;1023332;28;20038;-65
2021/09/28 01:36:08;;;;;;;26.67;18.38;;;;;;;13.57;100.00;96328.78;1027976;28;20587;-63
2021/09/28 01:36:38;;;;;;;27.70;19.33;;;;;;;13.59;100.00;96325.91;1031744;28;20053;-65
2021/09/28 01:37:09;;;;;;;24.58;18.63;;;;;;;13.54;100.00;96320.63;1035206;28;20114;-65
2021/09/28 01:37:39;;;;;;;25.48;18.58;;;;;;;13.63;100.00;96329.56;1035059;28;20042;-66
2021/09/28 01:38:09;;;;;;;26.85;19.17;;;;;;;13.60;100.00;96327.47;1034996;28;20029;-65
2021/09/28 01:38:40;;;;;;;24.63;17.83;;;;;;;13.63;100.00;96332.22;1031221;28;20034;-66
2021/09/28 01:39:10;;;;;;;23.10;18.08;;;;;;;13.61;100.00;96329.81;1031187;28;20030;-66
2021/09/28 01:39:41;;;;;;;23.92;18.30;;;;;;;13.60;100.00;96330.91;1036376;28;20030;-65
2021/09/28 01:40:11;;;;;;;20.88;16.83;;;;;;;13.63;100.00;96332.22;1039302;28;20036;-65
2021/09/28 01:40:42;;;;;;;23.63;17.10;;;;;;;13.62;100.00;96325.38;1039282;28;20061;-63
2021/09/28 01:41:15;;;;;;;27.17;18.17;;;;;;;13.60;100.00;96333.53;1038174;28;20059;-63
2021/09/28 01:41:46;;;;;;;25.13;17.52;;;;;;;13.61;100.00;96329.81;1038985;28;20048;-62
2021/09/28 01:42:16;;;;;;;21.25;17.55;;;;;;;13.53;100.00;96329.59;1031066;28;20273;-65
2021/09/28 01:42:46;;;;;;;23.75;17.35;;;;;;;13.59;100.00;96336.44;1023632;28;20043;-62
2021/09/28 01:43:19;;;;;;;23.92;18.50;;;;;;;13.58;100.00;96335.66;1022817;28;20031;-65
2021/09/28 01:43:50;;;;;;;22.92;16.23;;;;;;;13.60;100.00;96332.75;1018960;28;20039;-65
2021/09/28 01:44:23;;;;;;;26.73;18.63;;;;;;;13.59;100.00;96331.19;1017909;28;20094;-65
2021/09/28 01:44:53;;;;;;;22.20;18.13;;;;;;;13.60;100.00;96333.53;1023740;28;20938;-64
2021/09/28 01:45:24;;;;;;;21.40;17.30;;;;;;;13.61;100.00;96334.31;1027678;28;20362;-65
2021/09/28 01:45:58;;;;;;;22.90;18.30;;;;;;;13.59;100.00;96336.44;1026816;28;20994;-65
2021/09/28 01:46:29;;;;;;;23.75;17.85;;;;;;;13.61;100.00;96339.59;1027930;28;20018;-64
2021/09/28 01:46:59;;;;;;;22.13;17.40;;;;;;;13.59;100.00;96333.81;1026715;28;20353;-65
2021/09/28 01:47:30;;;;;;;25.17;17.77;;;;;;;13.62;100.00;96330.66;1019573;29;20032;-66
2021/09/28 01:48:00;;;;;;;24.67;18.27;;;;;;;13.61;100.00;96335.09;1018653;29;20042;-64
2021/09/28 01:48:46;;;;;;;23.17;17.13;;;;;;;13.67;100.00;96334.03;1022870;28;20023;-66
2021/09/28 01:49:21;;;;;;;25.85;18.20;;;;;;;13.64;100.00;96329.28;1022729;28;20105;-63
2021/09/28 01:49:52;;;;;;;26.30;17.95;;;;;;;13.62;100.00;96335.91;1023982;28;20453;-65
2021/09/28 01:50:22;;;;;;;22.88;17.42;;;;;;;13.64;100.00;96339.06;1020103;29;20283;-64
2021/09/28 01:50:52;;;;;;;23.35;17.42;;;;;;;13.66;100.00;96337.75;1021951;28;20023;-65
2021/09/28 01:51:23;;;;;;;20.02;15.02;;;;;;;13.66;100.00;96342.22;1025760;28;20026;-61
2021/09/28 01:51:53;;;;;;;24.05;17.80;;;;;;;13.66;100.00;96336.97;1022623;28;20378;-65
2021/09/28 01:52:24;;;;;;;22.80;17.02;;;;;;;13.66;100.00;96335.09;1030792;28;20768;-66
2021/09/28 01:52:54;;;;;;;21.40;17.10;;;;;;;13.64;100.00;96339.84;1026788;28;20168;-65
2021/09/28 01:53:25;;;;;;;23.83;17.90;;;;;;;13.48;100.00;96305.88;1025032;28;20031;-66
2021/09/28 01:53:55;;;;;;;22.83;17.45;;;;;;;13.60;100.00;96341.44;1019099;28;20026;-66
2021/09/28 01:54:26;;;;;;;22.23;17.15;;;;;;;13.62;100.00;96338.56;1022754;29;20070;-65
2021/09/28 01:54:56;;;;;;;25.42;16.35;;;;;;;13.60;100.00;96330.91;1022734;29;20421;-66
2021/09/28 01:55:27;;;;;;;20.30;16.35;;;;;;;13.59;100.00;96325.91;1023078;28;20410;-66
2021/09/28 01:55:57;;;;;;;21.48;15.90;;;;;;;13.64;100.00;96337.22;1027131;28;20460;-65
2021/09/28 01:56:27;;;;;;;21.52;17.30;;;;;;;13.63;100.00;96334.84;1026912;28;20035;-66
2021/09/28 01:56:58;;;;;;;26.15;15.88;;;;;;;13.62;100.00;96335.91;1022716;28;20059;-65
2021/09/28 01:57:28;;;;;;;18.85;15.60;;;;;;;13.66;100.00;96342.22;1023060;28;20038;-65
2021/09/28 01:57:59;;;;;;;22.08;16.52;;;;;;;13.68;100.00;96343.56;1023118;28;20102;-65
2021/09/28 01:58:29;;;;;;;21.42;15.75;;;;;;;13.67;100.00;96333.25;1023891;28;20115;-66
2021/09/28 01:59:01;;;;;;;16.80;14.38;;;;;;;13.73;100.00;96348.03;1023036;28;20023;-64
2021/09/28 01:59:31;;;;;;;19.77;14.77;;;;;;;13.73;100.00;96337.47;1027025;28;20500;-64
2021/09/28 02:00:03;;;;;;;20.50;15.25;;;;;;;13.73;100.00;96342.75;1027021;28;20042;-66
2021/09/28 02:00:33;;;;;;;19.20;14.10;;;;;;;13.75;100.00;96335.38;1026824;28;20030;-65
2021/09/28 02:01:04;;;;;;;18.15;14.70;;;;;;;13.79;100.00;96341.69;1022427;29;20275;-66
2021/09/28 02:01:34;;;;;;;19.38;15.32;;;;;;;13.78;100.00;96342.75;1029896;28;20907;-65
2021/09/28 02:02:05;;;;;;;19.33;15.23;;;;;;;13.79;100.00;96340.91;1030441;28;20109;-62
2021/09/28 02:02:38;;;;;;;18.85;15.20;;;;;;;13.79;100.00;96340.91;1026779;28;20046;-66
2021/09/28 02:03:11;;;;;;;18.85;15.13;;;;;;;13.81;100.00;96347.47;1028526;28;20031;-62
2021/09/28 02:03:42;;;;;;;21.77;15.20;;;;;;;13.78;100.00;96339.28;1030459;28;20265;-66
2021/09/28 02:04:12;;;;;;;20.10;14.95;;;;;;;13.78;100.00;96342.75;1027530;28;20772;-66
2021/09/28 02:04:43;;;;;;;21.08;16.20;;;;;;;13.78;100.00;96345.38;1021438;29;20405;-65
2021/09/28 02:05:13;;;;;;;21.35;16.00;;;;;;;13.78;100.00;96345.38;1022921;28;20028;-64
2021/09/28 02:05:44;;;;;;;20.60;16.58;;;;;;;13.74;100.00;96339.03;1027002;28;20102;-65
2021/09/28 02:06:19;;;;;;;19.25;14.45;;;;;;;13.75;100.00;96343.28;1027063;28;20034;-65
2021/09/28 02:06:51;;;;;;;19.80;14.70;;;;;;;13.79;100.00;96340.91;1025103;28;20038;-65
2021/09/28 02:07:21;;;;;;;20.08;14.98;;;;;;;13.79;100.00;96341.69;1030086;28;20030;-65
2021/09/28 02:07:52;;;;;;;21.55;16.08;;;;;;;13.78;100.00;96348.03;1030779;28;20379;-65
2021/09/28 02:08:22;;;;;;;20.50;15.55;;;;;;;13.78;100.00;96342.75;1032117;28;20116;-65
2021/09/28 02:08:52;;;;;;;16.65;14.40;;;;;;;13.78;100.00;96345.38;1034504;28;20177;-65
2021/09/28 02:09:23;;;;;;;22.13;16.33;;;;;;;13.81;100.00;96347.47;1038134;28;20040;-65
2021/09/28 02:09:53;;;;;;;20.02;15.98;;;;;;;13.74;100.00;96328.50;1038793;28;20029;-66
2021/09/28 02:10:24;;;;;;;21.30;15.43;;;;;;;13.80;100.00;96337.97;1030512;28;20034;-64
2021/09/28 02:10:54;;;;;;;17.70;14.93;;;;;;;13.82;100.00;96340.34;1026544;28;20019;-65
2021/09/28 02:11:25;;;;;;;18.98;15.35;;;;;;;13.76;100.00;96328.25;1026285;28;20081;-63
2021/09/28 02:11:55;;;;;;;17.20;14.38;;;;;;;13.82;100.00;96341.16;1021513;29;20031;-65
2021/09/28 02:12:25;;;;;;;19.38;15.32;;;;;;;13.75;100.00;96329.28;1029697;28;20022;-65
2021/09/28 02:12:56;;;;;;;20.40;15.88;;;;;;;13.83;100.00;96341.94;1030534;28;20023;-65
2021/09/28 02:13:27;;;;;;;21.00;15.40;;;;;;;13.77;100.00;96332.44;1026915;28;20024;-65
2021/09/28 02:13:58;;;;;;;20.10;15.70;;;;;;;13.83;100.00;96337.44;1030394;28;20077;-64
2021/09/28 02:14:29;;;;;;;23.10;15.70;;;;;;;13.82;100.00;96335.88;1026776;28;20054;-65
2021/09/28 02:14:59;;;;;;;17.70;14.80;;;;;;;13.79;100.00;96335.63;1026632;28;20097;-61
2021/09/28 02:15:30;;;;;;;20.02;15.70;;;;;;;13.81;100.00;96341.41;1027031;28;20053;-66
2021/09/28 02:16:00;;;;;;;18.35;15.15;;;;;;;13.80;100.00;96337.97;1030662;28;20420;-65
2021/09/28 02:16:31;;;;;;;21.95;17.35;;;;;;;13.79;100.00;96344.31;1025211;28;20409;-65
2021/09/28 02:17:01;;;;;;;20.08;15.18;;;;;;;13.80;100.00;96337.97;1020676;28;20023;-65
2021/09/28 02:17:32;;;;;;;19.95;16.30;;;;;;;13.79;100.00;96341.69;1017247;29;20025;-65
2021/09/28 02:18:03;;;;;;;24.58;16.77;;;;;;;13.80;100.00;96337.19;1019095;28;20043;-66
2021/09/28 02:18:34;;;;;;;21.67;16.55;;;;;;;13.79;100.00;96343.53;1026130;28;20023;-65
2021/09/28 02:19:04;;;;;;;20.42;15.50;;;;;;;13.73;100.00;96332.19;1029676;28;20081;-65
2021/09/28 02:19:35;;;;;;;22.13;15.85;;;;;;;13.79;100.00;96338.25;1026139;28;20031;-65
2021/09/28 02:20:06;;;;;;;20.23;16.50;;;;;;;13.77;100.00;96338.50;1019826;29;20038;-65
2021/09/28 02:20:40;;;;;;;20.42;16.27;;;;;;;13.77;100.00;96338.50;1021679;28;20026;-66
2021/09/28 02:21:10;;;;;;;20.42;15.52;;;;;;;13.82;100.00;96345.63;1023269;28;20046;-63